sensor_id;sensor_type;location;lat;lon;timestamp;pressure;altitude;pressure_sealevel;temperature;humidity
10310;BME280;5200;43.236;27.986;2023-07-31T00:00:15;99436.38;;;19.87;100.00
10310;BME280;5200;43.236;27.986;2023-07-31T00:02:42;99434.13;;;19.83;100.00
10310;BME280;5200;43.236;27.986;2023-07-31T00:05:09;99408.09;;;19.65;100.00
10310;BME280;5200;43.236;27.986;2023-07-31T00:07:37;99422.03;;;19.68;100.00
10310;BME280;5200;43.236;27.986;2023-07-31T00:10:05;99436.38;;;19.80;100.00
10310;BME280;5200;43.236;27.986;2023-07-31T00:12:32;99434.34;;;19.75;100.00
10310;BME280;5200;43.236;27.986;2023-07-31T00:14:59;99437.25;;;19.74;100.00
10310;BME280;5200;43.236;27.986;2023-07-31T00:17:26;99433.56;;;19.68;100.00
10310;BME280;5200;43.236;27.986;2023-07-31T00:19:52;99429.44;;;19.72;100.00
10310;BME280;5200;43.236;27.986;2023-07-31T00:22:19;99426.56;;;19.74;100.00
10310;BME280;5200;43.236;27.986;2023-07-31T00:24:48;99405.25;;;19.54;100.00
10310;BME280;5200;43.236;27.986;2023-07-31T00:27:14;99436.22;;;19.68;100.00
10310;BME280;5200;43.236;27.986;2023-07-31T00:29:41;99434.75;;;19.65;100.00
10310;BME280;5200;43.236;27.986;2023-07-31T00:32:08;99413.06;;;19.49;100.00
10310;BME280;5200;43.236;27.986;2023-07-31T00:34:35;99429.44;;;19.59;100.00
10310;BME280;5200;43.236;27.986;2023-07-31T00:37:02;99433.97;;;19.58;100.00
10310;BME280;5200;43.236;27.986;2023-07-31T00:39:29;99437.25;;;19.67;100.00
10310;BME280;5200;43.236;27.986;2023-07-31T00:41:58;99398.50;;;19.44;100.00
10310;BME280;5200;43.236;27.986;2023-07-31T00:44:25;99428.25;;;19.55;100.00
10310;BME280;5200;43.236;27.986;2023-07-31T00:46:52;99435.81;;;19.64;100.00
10310;BME280;5200;43.236;27.986;2023-07-31T00:49:21;99413.06;;;19.49;100.00
10310;BME280;5200;43.236;27.986;2023-07-31T00:51:48;99431.72;;;19.62;100.00
10310;BME280;5200;43.236;27.986;2023-07-31T00:54:15;99402.66;;;19.40;100.00
10310;BME280;5200;43.236;27.986;2023-07-31T00:56:45;99416.56;;;19.49;100.00
10310;BME280;5200;43.236;27.986;2023-07-31T00:59:15;99409.00;;;19.39;100.00
10310;BME280;5200;43.236;27.986;2023-07-31T01:01:44;99431.94;;;19.54;100.00
10310;BME280;5200;43.236;27.986;2023-07-31T01:04:11;99434.41;;;19.49;100.00
10310;BME280;5200;43.236;27.986;2023-07-31T01:06:45;99439.31;;;19.58;100.00
10310;BME280;5200;43.236;27.986;2023-07-31T01:09:21;99438.31;;;19.53;100.00
10310;BME280;5200;43.236;27.986;2023-07-31T01:11:53;99403.03;;;19.37;100.00
10310;BME280;5200;43.236;27.986;2023-07-31T01:14:23;99432.13;;;19.59;100.00
10310;BME280;5200;43.236;27.986;2023-07-31T01:16:50;99429.88;;;19.56;100.00
10310;BME280;5200;43.236;27.986;2023-07-31T01:19:20;99400.81;;;19.34;100.00
10310;BME280;5200;43.236;27.986;2023-07-31T01:24:55;99441.78;;;19.53;100.00
10310;BME280;5200;43.236;27.986;2023-07-31T01:27:30;99418.44;;;19.35;100.00
10310;BME280;5200;43.236;27.986;2023-07-31T01:30:03;99424.59;;;19.42;100.00
10310;BME280;5200;43.236;27.986;2023-07-31T01:32:36;99408.19;;;19.32;100.00
10310;BME280;5200;43.236;27.986;2023-07-31T01:35:06;99390.75;;;19.30;100.00
10310;BME280;5200;43.236;27.986;2023-07-31T01:37:33;99430.72;;;19.50;100.00
10310;BME280;5200;43.236;27.986;2023-07-31T01:40:00;99430.75;;;19.43;100.00
10310;BME280;5200;43.236;27.986;2023-07-31T01:42:29;99439.38;;;19.45;100.00
10310;BME280;5200;43.236;27.986;2023-07-31T01:44:55;99464.56;;;19.56;100.00
10310;BME280;5200;43.236;27.986;2023-07-31T01:47:22;99431.38;;;19.38;100.00
10310;BME280;5200;43.236;27.986;2023-07-31T01:49:50;99425.44;;;19.36;100.00
10310;BME280;5200;43.236;27.986;2023-07-31T01:52:16;99460.25;;;19.61;100.00
10310;BME280;5200;43.236;27.986;2023-07-31T01:54:43;99453.47;;;19.59;100.00
10310;BME280;5200;43.236;27.986;2023-07-31T01:57:10;99453.88;;;19.69;100.00
10310;BME280;5200;43.236;27.986;2023-07-31T01:59:38;99451.63;;;19.66;100.00
10310;BME280;5200;43.236;27.986;2023-07-31T02:02:06;99416.78;;;19.48;100.00
10310;BME280;5200;43.236;27.986;2023-07-31T02:04:32;99442.16;;;19.63;100.00
10310;BME280;5200;43.236;27.986;2023-07-31T02:06:59;99449.97;;;19.65;100.00
10310;BME280;5200;43.236;27.986;2023-07-31T02:09:26;99456.34;;;19.64;100.00
10310;BME280;5200;43.236;27.986;2023-07-31T02:11:53;99449.34;;;19.63;100.00
10310;BME280;5200;43.236;27.986;2023-07-31T02:14:20;99452.03;;;19.63;100.00
10310;BME280;5200;43.236;27.986;2023-07-31T02:16:48;99457.78;;;19.67;100.00
10310;BME280;5200;43.236;27.986;2023-07-31T02:19:15;99425.41;;;19.43;100.00
10310;BME280;5200;43.236;27.986;2023-07-31T02:21:42;99469.09;;;19.69;100.00
10310;BME280;5200;43.236;27.986;2023-07-31T02:24:09;99471.94;;;19.67;100.00
10310;BME280;5200;43.236;27.986;2023-07-31T02:26:36;99465.97;;;19.65;100.00
10310;BME280;5200;43.236;27.986;2023-07-31T02:29:02;99447.31;;;19.52;100.00
10310;BME280;5200;43.236;27.986;2023-07-31T02:31:29;99464.38;;;19.57;100.00
10310;BME280;5200;43.236;27.986;2023-07-31T02:33:57;99470.72;;;19.56;100.00
10310;BME280;5200;43.236;27.986;2023-07-31T02:36:24;99443.09;;;19.31;100.00
10310;BME280;5200;43.236;27.986;2023-07-31T02:38:51;99454.16;;;19.34;100.00
10310;BME280;5200;43.236;27.986;2023-07-31T02:41:18;99457.25;;;19.31;100.00
10310;BME280;5200;43.236;27.986;2023-07-31T02:43:45;99454.78;;;19.30;100.00
10310;BME280;5200;43.236;27.986;2023-07-31T02:46:12;99470.16;;;19.34;100.00
10310;BME280;5200;43.236;27.986;2023-07-31T02:48:39;99443.53;;;19.14;100.00
10310;BME280;5200;43.236;27.986;2023-07-31T02:51:07;99493.53;;;19.32;100.00
10310;BME280;5200;43.236;27.986;2023-07-31T02:53:34;99481.25;;;19.31;100.00
10310;BME280;5200;43.236;27.986;2023-07-31T02:56:01;99459.91;;;19.18;100.00
10310;BME280;5200;43.236;27.986;2023-07-31T02:58:27;99463.59;;;19.30;100.00
10310;BME280;5200;43.236;27.986;2023-07-31T03:00:54;99474.25;;;19.30;100.00
10310;BME280;5200;43.236;27.986;2023-07-31T03:03:21;99444.91;;;19.23;100.00
10310;BME280;5200;43.236;27.986;2023-07-31T03:05:48;99456.19;;;19.39;100.00
10310;BME280;5200;43.236;27.986;2023-07-31T03:08:16;99466.81;;;19.59;100.00
10310;BME280;5200;43.236;27.986;2023-07-31T03:10:43;99472.63;;;20.08;100.00
10310;BME280;5200;43.236;27.986;2023-07-31T03:13:10;99458.41;;;20.52;100.00
10310;BME280;5200;43.236;27.986;2023-07-31T03:15:37;99446.88;;;21.08;100.00
10310;BME280;5200;43.236;27.986;2023-07-31T03:18:04;99470.25;;;21.82;100.00
10310;BME280;5200;43.236;27.986;2023-07-31T03:20:31;99457.22;;;22.34;100.00
10310;BME280;5200;43.236;27.986;2023-07-31T03:22:58;99486.69;;;23.06;100.00
10310;BME280;5200;43.236;27.986;2023-07-31T03:25:26;99485.47;;;23.73;100.00
10310;BME280;5200;43.236;27.986;2023-07-31T03:27:53;99468.88;;;24.28;100.00
10310;BME280;5200;43.236;27.986;2023-07-31T03:30:20;99463.84;;;24.77;100.00
10310;BME280;5200;43.236;27.986;2023-07-31T03:32:47;99478.38;;;25.10;100.00
10310;BME280;5200;43.236;27.986;2023-07-31T03:35:14;99469.97;;;24.89;100.00
10310;BME280;5200;43.236;27.986;2023-07-31T03:37:40;99470.03;;;24.61;100.00
10310;BME280;5200;43.236;27.986;2023-07-31T03:40:08;99465.69;;;24.31;100.00
10310;BME280;5200;43.236;27.986;2023-07-31T03:42:37;99474.78;;;24.13;100.00
10310;BME280;5200;43.236;27.986;2023-07-31T03:45:05;99468.97;;;24.33;100.00
10310;BME280;5200;43.236;27.986;2023-07-31T03:47:32;99470.53;;;25.08;100.00
10310;BME280;5200;43.236;27.986;2023-07-31T03:49:59;99466.97;;;25.81;100.00
10310;BME280;5200;43.236;27.986;2023-07-31T03:52:26;99467.81;;;26.30;100.00
10310;BME280;5200;43.236;27.986;2023-07-31T03:54:52;99470.28;;;26.32;99.03
10310;BME280;5200;43.236;27.986;2023-07-31T03:57:19;99468.13;;;26.07;100.00
10310;BME280;5200;43.236;27.986;2023-07-31T03:59:47;99467.09;;;25.69;100.00
10310;BME280;5200;43.236;27.986;2023-07-31T04:02:14;99460.97;;;25.35;100.00
10310;BME280;5200;43.236;27.986;2023-07-31T04:04:41;99439.13;;;24.97;100.00
10310;BME280;5200;43.236;27.986;2023-07-31T04:07:08;99462.53;;;24.97;100.00
10310;BME280;5200;43.236;27.986;2023-07-31T04:09:35;99455.78;;;24.94;100.00
10310;BME280;5200;43.236;27.986;2023-07-31T04:12:02;99465.16;;;25.08;100.00
10310;BME280;5200;43.236;27.986;2023-07-31T04:14:29;99462.38;;;25.20;100.00
10310;BME280;5200;43.236;27.986;2023-07-31T04:16:57;99466.78;;;25.65;100.00
10310;BME280;5200;43.236;27.986;2023-07-31T04:19:24;99463.38;;;25.92;100.00
10310;BME280;5200;43.236;27.986;2023-07-31T04:21:51;99456.81;;;26.32;100.00
10310;BME280;5200;43.236;27.986;2023-07-31T04:24:17;99475.50;;;27.03;100.00
10310;BME280;5200;43.236;27.986;2023-07-31T04:26:49;99468.00;;;27.53;96.97
10310;BME280;5200;43.236;27.986;2023-07-31T04:29:16;99476.22;;;27.73;94.17
10310;BME280;5200;43.236;27.986;2023-07-31T04:31:43;99474.59;;;27.77;90.37
10310;BME280;5200;43.236;27.986;2023-07-31T04:34:11;99475.75;;;27.87;88.84
10310;BME280;5200;43.236;27.986;2023-07-31T04:36:38;99474.00;;;28.28;87.12
10310;BME280;5200;43.236;27.986;2023-07-31T04:39:05;99471.94;;;28.76;85.49
10310;BME280;5200;43.236;27.986;2023-07-31T04:41:44;99471.06;;;29.27;83.18
10310;BME280;5200;43.236;27.986;2023-07-31T04:44:11;99473.69;;;29.68;79.87
10310;BME280;5200;43.236;27.986;2023-07-31T04:46:42;99475.25;;;29.89;76.78
10310;BME280;5200;43.236;27.986;2023-07-31T04:49:11;99478.50;;;29.86;74.67
10310;BME280;5200;43.236;27.986;2023-07-31T04:51:38;99467.75;;;29.50;74.02
10310;BME280;5200;43.236;27.986;2023-07-31T04:54:04;99474.88;;;29.26;74.36
10310;BME280;5200;43.236;27.986;2023-07-31T04:56:31;99476.78;;;28.90;74.57
10310;BME280;5200;43.236;27.986;2023-07-31T04:58:58;99490.59;;;28.73;75.54
10310;BME280;5200;43.236;27.986;2023-07-31T05:01:25;99483.00;;;28.70;76.08
10310;BME280;5200;43.236;27.986;2023-07-31T05:03:52;99478.94;;;29.03;75.27
10310;BME280;5200;43.236;27.986;2023-07-31T05:06:20;99483.81;;;29.32;74.39
10310;BME280;5200;43.236;27.986;2023-07-31T05:08:47;99483.47;;;29.69;71.85
10310;BME280;5200;43.236;27.986;2023-07-31T05:11:14;99489.78;;;30.09;70.26
10310;BME280;5200;43.236;27.986;2023-07-31T05:13:40;99494.50;;;30.43;69.06
10310;BME280;5200;43.236;27.986;2023-07-31T05:16:07;99493.94;;;30.85;65.70
10310;BME280;5200;43.236;27.986;2023-07-31T05:18:34;99485.25;;;31.17;62.03
10310;BME280;5200;43.236;27.986;2023-07-31T05:21:01;99491.41;;;31.28;57.76
10310;BME280;5200;43.236;27.986;2023-07-31T05:23:29;99494.28;;;31.42;55.67
10310;BME280;5200;43.236;27.986;2023-07-31T05:26:03;99490.06;;;31.26;54.64
10310;BME280;5200;43.236;27.986;2023-07-31T05:28:36;99494.38;;;31.27;51.68
10310;BME280;5200;43.236;27.986;2023-07-31T05:31:04;99492.56;;;31.46;50.01
10310;BME280;5200;43.236;27.986;2023-07-31T05:33:32;99497.06;;;31.61;48.59
10310;BME280;5200;43.236;27.986;2023-07-31T05:35:59;99489.84;;;31.46;49.38
10310;BME280;5200;43.236;27.986;2023-07-31T05:38:25;99499.47;;;31.09;49.05
10310;BME280;5200;43.236;27.986;2023-07-31T05:40:55;99505.72;;;30.21;52.40
10310;BME280;5200;43.236;27.986;2023-07-31T05:43:22;99492.72;;;29.47;54.05
10310;BME280;5200;43.236;27.986;2023-07-31T05:45:49;99502.47;;;29.43;55.56
10310;BME280;5200;43.236;27.986;2023-07-31T05:48:16;99485.31;;;29.79;55.94
10310;BME280;5200;43.236;27.986;2023-07-31T05:50:43;99503.78;;;30.37;53.76
10310;BME280;5200;43.236;27.986;2023-07-31T05:53:10;99498.84;;;30.44;51.63
10310;BME280;5200;43.236;27.986;2023-07-31T05:55:36;99491.50;;;29.84;54.21
10310;BME280;5200;43.236;27.986;2023-07-31T05:58:05;99488.06;;;29.58;55.61
10310;BME280;5200;43.236;27.986;2023-07-31T06:00:31;99496.00;;;29.03;56.40
10310;BME280;5200;43.236;27.986;2023-07-31T06:02:58;99496.78;;;28.48;58.73
10310;BME280;5200;43.236;27.986;2023-07-31T06:05:25;99501.34;;;28.37;59.48
10310;BME280;5200;43.236;27.986;2023-07-31T06:07:54;99500.81;;;28.45;59.88
10310;BME280;5200;43.236;27.986;2023-07-31T06:10:21;99497.25;;;28.29;59.26
10310;BME280;5200;43.236;27.986;2023-07-31T06:12:48;99509.69;;;28.25;60.24
10310;BME280;5200;43.236;27.986;2023-07-31T06:15:16;99506.69;;;28.16;60.39
10310;BME280;5200;43.236;27.986;2023-07-31T06:17:44;99513.75;;;28.28;60.16
10310;BME280;5200;43.236;27.986;2023-07-31T06:20:11;99501.03;;;28.33;59.93
10310;BME280;5200;43.236;27.986;2023-07-31T06:22:38;99509.53;;;28.73;59.84
10310;BME280;5200;43.236;27.986;2023-07-31T06:25:05;99508.19;;;28.91;58.89
10310;BME280;5200;43.236;27.986;2023-07-31T06:27:32;99520.66;;;28.86;57.35
10310;BME280;5200;43.236;27.986;2023-07-31T06:29:59;99513.84;;;28.58;58.55
10310;BME280;5200;43.236;27.986;2023-07-31T06:32:27;99518.41;;;28.48;59.28
10310;BME280;5200;43.236;27.986;2023-07-31T06:34:54;99525.97;;;28.45;59.02
10310;BME280;5200;43.236;27.986;2023-07-31T06:37:21;99523.47;;;28.23;60.79
10310;BME280;5200;43.236;27.986;2023-07-31T06:39:48;99524.50;;;28.12;62.36
10310;BME280;5200;43.236;27.986;2023-07-31T06:42:15;99521.31;;;28.15;62.07
10310;BME280;5200;43.236;27.986;2023-07-31T06:44:42;99525.84;;;28.04;62.25
10310;BME280;5200;43.236;27.986;2023-07-31T06:47:08;99524.41;;;27.87;61.98
10310;BME280;5200;43.236;27.986;2023-07-31T06:49:37;99513.16;;;27.57;63.21
10310;BME280;5200;43.236;27.986;2023-07-31T06:52:04;99523.63;;;27.49;64.36
10310;BME280;5200;43.236;27.986;2023-07-31T06:54:31;99520.22;;;27.64;64.32
10310;BME280;5200;43.236;27.986;2023-07-31T06:56:58;99525.13;;;27.77;64.42
10310;BME280;5200;43.236;27.986;2023-07-31T06:59:25;99511.16;;;27.85;62.56
10310;BME280;5200;43.236;27.986;2023-07-31T07:01:52;99538.09;;;28.22;63.36
10310;BME280;5200;43.236;27.986;2023-07-31T07:04:19;99528.31;;;28.11;61.52
10310;BME280;5200;43.236;27.986;2023-07-31T07:06:47;99537.69;;;27.98;62.88
10310;BME280;5200;43.236;27.986;2023-07-31T07:09:14;99530.34;;;27.83;64.33
10310;BME280;5200;43.236;27.986;2023-07-31T07:11:41;99527.06;;;27.81;64.80
10310;BME280;5200;43.236;27.986;2023-07-31T07:14:08;99530.78;;;27.70;63.91
10310;BME280;5200;43.236;27.986;2023-07-31T07:16:35;99514.63;;;27.80;65.25
10310;BME280;5200;43.236;27.986;2023-07-31T07:19:03;99510.97;;;28.02;62.01
10310;BME280;5200;43.236;27.986;2023-07-31T07:21:29;99505.78;;;27.95;62.50
10310;BME280;5200;43.236;27.986;2023-07-31T07:23:58;99510.50;;;28.36;63.64
10310;BME280;5200;43.236;27.986;2023-07-31T07:26:25;99500.88;;;28.86;61.31
10310;BME280;5200;43.236;27.986;2023-07-31T07:28:52;99523.59;;;29.57;59.95
10310;BME280;5200;43.236;27.986;2023-07-31T07:31:20;99521.25;;;30.10;58.05
10310;BME280;5200;43.236;27.986;2023-07-31T07:33:47;99511.69;;;30.28;54.79
10310;BME280;5200;43.236;27.986;2023-07-31T07:36:13;99519.06;;;30.12;56.25
10310;BME280;5200;43.236;27.986;2023-07-31T07:38:40;99505.63;;;29.86;56.19
10310;BME280;5200;43.236;27.986;2023-07-31T07:41:09;99517.47;;;30.01;55.31
10310;BME280;5200;43.236;27.986;2023-07-31T07:43:36;99523.94;;;30.15;55.64
10310;BME280;5200;43.236;27.986;2023-07-31T07:46:03;99519.41;;;30.50;55.30
10310;BME280;5200;43.236;27.986;2023-07-31T07:48:30;99522.00;;;30.70;54.49
10310;BME280;5200;43.236;27.986;2023-07-31T07:50:57;99521.66;;;30.82;54.61
10310;BME280;5200;43.236;27.986;2023-07-31T07:53:24;99517.16;;;31.07;54.13
10310;BME280;5200;43.236;27.986;2023-07-31T07:55:51;99525.47;;;31.15;51.82
10310;BME280;5200;43.236;27.986;2023-07-31T07:58:19;99518.31;;;31.25;51.12
10310;BME280;5200;43.236;27.986;2023-07-31T08:00:48;99521.44;;;31.37;50.67
10310;BME280;5200;43.236;27.986;2023-07-31T08:03:16;99527.63;;;31.48;50.98
10310;BME280;5200;43.236;27.986;2023-07-31T08:05:43;99522.50;;;31.70;51.71
10310;BME280;5200;43.236;27.986;2023-07-31T08:08:14;99515.06;;;31.23;53.01
10310;BME280;5200;43.236;27.986;2023-07-31T08:10:41;99520.84;;;30.82;53.72
10310;BME280;5200;43.236;27.986;2023-07-31T08:13:09;99528.81;;;30.68;54.92
10310;BME280;5200;43.236;27.986;2023-07-31T08:15:38;99525.56;;;31.05;54.33
10310;BME280;5200;43.236;27.986;2023-07-31T08:18:04;99523.81;;;31.20;54.59
10310;BME280;5200;43.236;27.986;2023-07-31T08:20:31;99524.09;;;31.18;54.36
10310;BME280;5200;43.236;27.986;2023-07-31T08:22:58;99533.06;;;31.48;53.64
10310;BME280;5200;43.236;27.986;2023-07-31T08:25:25;99531.09;;;31.53;52.61
10310;BME280;5200;43.236;27.986;2023-07-31T08:27:52;99525.78;;;31.67;52.82
10310;BME280;5200;43.236;27.986;2023-07-31T08:30:19;99524.97;;;31.67;51.37
10310;BME280;5200;43.236;27.986;2023-07-31T08:32:47;99527.75;;;31.62;51.75
10310;BME280;5200;43.236;27.986;2023-07-31T08:35:14;99531.91;;;31.25;52.68
10310;BME280;5200;43.236;27.986;2023-07-31T08:37:42;99534.19;;;30.73;53.83
10310;BME280;5200;43.236;27.986;2023-07-31T08:40:09;99533.25;;;30.53;54.69
10310;BME280;5200;43.236;27.986;2023-07-31T08:42:43;99530.91;;;30.37;55.05
10310;BME280;5200;43.236;27.986;2023-07-31T08:45:14;99525.56;;;30.16;54.19
10310;BME280;5200;43.236;27.986;2023-07-31T08:47:44;99524.63;;;29.81;55.50
10310;BME280;5200;43.236;27.986;2023-07-31T08:50:12;99524.91;;;29.64;57.20
10310;BME280;5200;43.236;27.986;2023-07-31T08:52:40;99522.22;;;29.59;57.18
10310;BME280;5200;43.236;27.986;2023-07-31T08:55:07;99537.69;;;29.59;57.22
10310;BME280;5200;43.236;27.986;2023-07-31T08:57:36;99529.00;;;29.57;56.95
10310;BME280;5200;43.236;27.986;2023-07-31T09:00:04;99537.13;;;29.62;57.29
10310;BME280;5200;43.236;27.986;2023-07-31T09:02:37;99526.84;;;29.69;57.29
10310;BME280;5200;43.236;27.986;2023-07-31T09:05:06;99526.00;;;29.74;56.78
10310;BME280;5200;43.236;27.986;2023-07-31T09:07:35;99527.63;;;29.64;56.38
10310;BME280;5200;43.236;27.986;2023-07-31T09:10:02;99535.50;;;29.71;56.98
10310;BME280;5200;43.236;27.986;2023-07-31T09:12:29;99524.13;;;29.54;57.22
10310;BME280;5200;43.236;27.986;2023-07-31T09:14:57;99537.72;;;29.23;58.17
10310;BME280;5200;43.236;27.986;2023-07-31T09:17:30;99537.19;;;29.11;58.67
10310;BME280;5200;43.236;27.986;2023-07-31T09:19:57;99528.00;;;29.12;58.97
10310;BME280;5200;43.236;27.986;2023-07-31T09:22:35;99543.13;;;29.38;58.85
10310;BME280;5200;43.236;27.986;2023-07-31T09:25:14;99549.63;;;29.37;57.90
10310;BME280;5200;43.236;27.986;2023-07-31T09:27:49;99553.44;;;29.31;58.09
10310;BME280;5200;43.236;27.986;2023-07-31T09:30:17;99531.22;;;29.14;58.49
10310;BME280;5200;43.236;27.986;2023-07-31T09:32:44;99555.84;;;29.33;58.71
10310;BME280;5200;43.236;27.986;2023-07-31T09:35:14;99546.66;;;29.28;58.65
10310;BME280;5200;43.236;27.986;2023-07-31T09:37:49;99554.50;;;29.45;57.83
10310;BME280;5200;43.236;27.986;2023-07-31T09:40:25;99542.31;;;29.43;58.06
10310;BME280;5200;43.236;27.986;2023-07-31T09:42:53;99556.91;;;29.67;58.24
10310;BME280;5200;43.236;27.986;2023-07-31T09:45:20;99545.22;;;29.77;57.94
10310;BME280;5200;43.236;27.986;2023-07-31T09:47:46;99532.50;;;29.78;57.52
10310;BME280;5200;43.236;27.986;2023-07-31T09:50:14;99533.22;;;30.04;56.40
10310;BME280;5200;43.236;27.986;2023-07-31T09:52:41;99534.28;;;30.03;56.18
10310;BME280;5200;43.236;27.986;2023-07-31T09:55:09;99532.47;;;29.88;57.04
10310;BME280;5200;43.236;27.986;2023-07-31T09:57:39;99534.38;;;29.77;57.70
10310;BME280;5200;43.236;27.986;2023-07-31T10:00:07;99503.25;;;29.49;57.71
10310;BME280;5200;43.236;27.986;2023-07-31T10:02:36;99541.19;;;29.59;58.12
10310;BME280;5200;43.236;27.986;2023-07-31T10:05:04;99527.66;;;29.49;58.25
10310;BME280;5200;43.236;27.986;2023-07-31T10:07:36;99530.09;;;29.45;58.94
10310;BME280;5200;43.236;27.986;2023-07-31T10:10:04;99525.47;;;29.51;58.35
10310;BME280;5200;43.236;27.986;2023-07-31T10:12:33;99535.25;;;29.52;58.39
10310;BME280;5200;43.236;27.986;2023-07-31T10:15:01;99527.34;;;29.76;58.86
10310;BME280;5200;43.236;27.986;2023-07-31T10:17:29;99528.63;;;29.99;58.37
10310;BME280;5200;43.236;27.986;2023-07-31T10:19:58;99533.13;;;30.29;57.06
10310;BME280;5200;43.236;27.986;2023-07-31T10:22:27;99521.75;;;30.17;57.24
10310;BME280;5200;43.236;27.986;2023-07-31T10:24:54;99534.81;;;30.05;57.93
10310;BME280;5200;43.236;27.986;2023-07-31T10:27:24;99527.72;;;30.19;58.09
10310;BME280;5200;43.236;27.986;2023-07-31T10:29:53;99529.59;;;30.29;57.18
10310;BME280;5200;43.236;27.986;2023-07-31T10:32:21;99535.09;;;30.08;57.45
10310;BME280;5200;43.236;27.986;2023-07-31T10:34:50;99532.66;;;30.07;57.48
10310;BME280;5200;43.236;27.986;2023-07-31T10:37:25;99529.44;;;30.00;57.83
10310;BME280;5200;43.236;27.986;2023-07-31T10:40:03;99523.19;;;29.99;58.35
10310;BME280;5200;43.236;27.986;2023-07-31T10:42:32;99525.63;;;30.06;58.05
10310;BME280;5200;43.236;27.986;2023-07-31T10:45:03;99531.53;;;30.18;58.22
10310;BME280;5200;43.236;27.986;2023-07-31T10:47:31;99530.88;;;30.42;58.51
10310;BME280;5200;43.236;27.986;2023-07-31T10:50:21;99529.84;;;30.77;57.95
10310;BME280;5200;43.236;27.986;2023-07-31T10:52:51;99530.63;;;30.77;58.12
10310;BME280;5200;43.236;27.986;2023-07-31T10:55:29;99522.16;;;30.89;57.54
10310;BME280;5200;43.236;27.986;2023-07-31T10:57:58;99529.41;;;30.99;53.92
10310;BME280;5200;43.236;27.986;2023-07-31T11:00:32;99514.66;;;31.10;51.77
10310;BME280;5200;43.236;27.986;2023-07-31T11:03:01;99517.03;;;31.46;51.37
10310;BME280;5200;43.236;27.986;2023-07-31T11:05:44;99509.31;;;31.58;48.94
10310;BME280;5200;43.236;27.986;2023-07-31T11:08:13;99510.47;;;31.76;49.42
10310;BME280;5200;43.236;27.986;2023-07-31T11:10:39;99504.22;;;32.00;49.22
10310;BME280;5200;43.236;27.986;2023-07-31T11:13:06;99483.34;;;32.14;48.65
10310;BME280;5200;43.236;27.986;2023-07-31T11:15:35;99507.56;;;32.35;47.77
10310;BME280;5200;43.236;27.986;2023-07-31T11:18:02;99491.84;;;32.08;46.23
10310;BME280;5200;43.236;27.986;2023-07-31T11:20:31;99492.22;;;31.77;47.78
10310;BME280;5200;43.236;27.986;2023-07-31T11:22:59;99510.34;;;31.63;47.63
10310;BME280;5200;43.236;27.986;2023-07-31T11:25:28;99509.56;;;31.33;48.19
10310;BME280;5200;43.236;27.986;2023-07-31T11:27:56;99477.56;;;30.95;49.53
10310;BME280;5200;43.236;27.986;2023-07-31T11:30:23;99501.31;;;30.80;50.92
10310;BME280;5200;43.236;27.986;2023-07-31T11:32:51;99487.25;;;30.72;51.94
10310;BME280;5200;43.236;27.986;2023-07-31T11:35:18;99491.56;;;30.73;50.76
10310;BME280;5200;43.236;27.986;2023-07-31T11:37:45;99476.53;;;30.52;50.46
10310;BME280;5200;43.236;27.986;2023-07-31T11:40:12;99489.03;;;30.53;52.78
10310;BME280;5200;43.236;27.986;2023-07-31T11:42:39;99478.13;;;30.58;52.12
10310;BME280;5200;43.236;27.986;2023-07-31T11:45:07;99458.19;;;30.73;50.67
10310;BME280;5200;43.236;27.986;2023-07-31T11:47:35;99485.09;;;31.04;48.71
10310;BME280;5200;43.236;27.986;2023-07-31T11:50:05;99477.72;;;31.09;48.84
10310;BME280;5200;43.236;27.986;2023-07-31T11:52:35;99492.16;;;31.05;48.83
10310;BME280;5200;43.236;27.986;2023-07-31T11:55:04;99486.44;;;31.06;48.28
10310;BME280;5200;43.236;27.986;2023-07-31T11:57:32;99495.16;;;31.03;48.67
10310;BME280;5200;43.236;27.986;2023-07-31T11:59:59;99493.50;;;31.07;49.10
10310;BME280;5200;43.236;27.986;2023-07-31T12:02:26;99478.75;;;31.13;50.06
10310;BME280;5200;43.236;27.986;2023-07-31T12:04:53;99483.69;;;31.41;48.68
10310;BME280;5200;43.236;27.986;2023-07-31T12:07:23;99486.13;;;31.42;48.88
10310;BME280;5200;43.236;27.986;2023-07-31T12:09:52;99473.78;;;31.21;50.08
10310;BME280;5200;43.236;27.986;2023-07-31T12:12:20;99480.53;;;31.28;50.92
10310;BME280;5200;43.236;27.986;2023-07-31T12:14:47;99465.22;;;31.08;50.72
10310;BME280;5200;43.236;27.986;2023-07-31T12:17:16;99494.03;;;31.09;51.63
10310;BME280;5200;43.236;27.986;2023-07-31T12:19:43;99486.72;;;30.70;51.33
10310;BME280;5200;43.236;27.986;2023-07-31T12:22:14;99489.88;;;30.48;51.34
10310;BME280;5200;43.236;27.986;2023-07-31T12:24:44;99475.88;;;30.26;52.85
10310;BME280;5200;43.236;27.986;2023-07-31T12:27:11;99470.31;;;30.02;51.96
10310;BME280;5200;43.236;27.986;2023-07-31T12:29:39;99466.38;;;29.58;53.46
10310;BME280;5200;43.236;27.986;2023-07-31T12:32:21;99449.41;;;29.01;55.42
10310;BME280;5200;43.236;27.986;2023-07-31T12:34:49;99474.34;;;28.98;56.53
10310;BME280;5200;43.236;27.986;2023-07-31T12:37:16;99472.47;;;28.83;57.12
10310;BME280;5200;43.236;27.986;2023-07-31T12:39:44;99473.78;;;28.81;57.01
10310;BME280;5200;43.236;27.986;2023-07-31T12:42:11;99456.47;;;28.66;57.88
10310;BME280;5200;43.236;27.986;2023-07-31T12:44:38;99451.59;;;28.63;58.81
10310;BME280;5200;43.236;27.986;2023-07-31T12:47:05;99441.03;;;28.62;60.25
10310;BME280;5200;43.236;27.986;2023-07-31T12:49:32;99428.88;;;28.64;60.36
10310;BME280;5200;43.236;27.986;2023-07-31T12:51:59;99457.56;;;28.81;62.09
10310;BME280;5200;43.236;27.986;2023-07-31T12:54:26;99458.66;;;28.75;63.73
10310;BME280;5200;43.236;27.986;2023-07-31T12:56:54;99473.25;;;28.63;65.94
10310;BME280;5200;43.236;27.986;2023-07-31T12:59:21;99451.88;;;28.47;67.65
10310;BME280;5200;43.236;27.986;2023-07-31T13:01:48;99433.69;;;28.21;69.83
10310;BME280;5200;43.236;27.986;2023-07-31T13:04:15;99415.78;;;28.00;71.37